Decoded Metar for KGGE (GEORGETOWN in SC, USA) (IATA:GGE) | Meteo·Mobile Aviation Weather
aviador You're here:

KGGE Decoded Metar

GEORGETOWN in SC, USA
Report Time2018-09-21 17:55:00
UTC Time2018-09-21 18:02:17
Flight Rules vfr VFR
Wind040° at 10 Gusting to 14 kt
W.Decomp.*RWY 05: 10.0 kt HW 0.7 kt LCW
RWY 11: 4.4 kt HW 9 kt LCW
W.Rank040° ranks 14
Current wind is above 040° avg. (6.8)
Visibility9999 m
Phenomena:N/A
Clouds:N/A
Expected CloudBase > 3,600 ft AGL from Temp-Dew spread
CeilingNone
Temp28°C (ISA +13)
Dew Point19°C (58% RH)
Heat Index29.2°C
AAT27.6°C
QNH1022 hPa
Density Alt1,532 ft
Elevation39 ft
Report Wrong Elevation
Raw Report
KGGE 211755Z AUTO 04010G14KT 10SM CLR 28/19 A3017 RMK AO2=

Extra information for KGGE:More info

Metar Taf Metar & Taf Last 4 Metars F.Rules Stats Wind Profile Meteogram Temp Stats Airport Information Weather charts Add Link Nearby VenuesMetar ALERT Operation Metar Decoded Social comments

AIRNAV info for KGGE